Time;durP1;ratioP1;P1;durP2;ratioP2;P2;SDS_P1;SDS_P2;PMS_P1;PMS_P2;Temp;Humidity;BMP_temperature;BMP_pressure;BME280_temperature;BME280_humidity;BME280_pressure;Samples;Min_cycle;Max_cycle;Signal;HPM_P1;HPM_P2
2023/03/18 00:01:34;;;;;;;10.32;2.80;;;12.70;91.90;;;;;;5073976;28;20039;-91
2023/03/18 00:04:00;;;;;;;9.75;3.30;;;12.70;92.20;;;;;;5074356;28;20048;-92
2023/03/18 00:06:26;;;;;;;8.25;3.45;;;12.70;92.40;;;;;;5074313;28;20040;-91
2023/03/18 00:08:51;;;;;;;11.25;4.07;;;12.70;92.50;;;;;;5073758;28;20447;-92
2023/03/18 00:11:20;;;;;;;8.35;3.35;;;12.70;93.00;;;;;;5091273;28;20071;-92
2023/03/18 00:13:47;;;;;;;9.18;3.13;;;12.70;92.70;;;;;;5074066;28;20118;-91
2023/03/18 00:16:13;;;;;;;11.25;3.05;;;12.60;93.10;;;;;;5073889;28;20040;-91
2023/03/18 00:18:40;;;;;;;10.60;3.65;;;12.60;93.30;;;;;;5090627;28;20050;-91
2023/03/18 00:21:06;;;;;;;8.55;3.05;;;12.60;93.50;;;;;;5072691;28;20106;-91
2023/03/18 00:23:32;;;;;;;9.48;3.47;;;12.60;93.50;;;;;;5090624;28;20054;-92
2023/03/18 00:26:00;;;;;;;7.55;2.97;;;12.60;93.70;;;;;;5073979;28;20409;-93
2023/03/18 00:28:26;;;;;;;8.25;3.28;;;12.50;93.90;;;;;;5081792;28;20040;-93
2023/03/18 00:30:53;;;;;;;9.55;4.35;;;12.50;94.00;;;;;;5074032;28;20135;-93
2023/03/18 00:33:19;;;;;;;11.20;3.88;;;12.50;94.20;;;;;;5090492;28;20390;-92
2023/03/18 00:35:46;;;;;;;10.48;4.20;;;12.50;94.20;;;;;;5090814;28;20549;-92
2023/03/18 00:38:19;;;;;;;12.25;4.85;;;12.50;94.60;;;;;;5073483;28;20071;-92
2023/03/18 00:41:00;;;;;;;10.30;3.35;;;12.50;95.60;;;;;;5090416;28;20090;-92
2023/03/18 00:43:28;;;;;;;8.65;3.33;;;12.50;94.70;;;;;;5073037;28;20040;-92
2023/03/18 00:45:55;;;;;;;10.75;3.15;;;12.50;95.00;;;;;;5089988;28;20048;-92
2023/03/18 00:48:23;;;;;;;10.25;3.30;;;12.50;95.10;;;;;;5073963;28;20032;-92
2023/03/18 00:50:49;;;;;;;11.15;3.42;;;12.40;95.30;;;;;;5089857;28;20516;-93
2023/03/18 00:53:15;;;;;;;9.85;3.22;;;12.40;95.30;;;;;;5090208;28;20036;-93
2023/03/18 00:55:41;;;;;;;13.20;3.60;;;12.40;95.30;;;;;;5073972;28;20123;-93
2023/03/18 00:58:08;;;;;;;10.68;4.68;;;12.40;95.40;;;;;;5072947;28;20122;-93
2023/03/18 01:00:36;;;;;;;10.20;3.92;;;12.50;96.90;;;;;;5073364;28;20036;-92
2023/03/18 01:03:02;;;;;;;8.45;3.28;;;12.40;96.10;;;;;;5073445;28;20105;-93
2023/03/18 01:05:27;;;;;;;8.88;3.80;;;12.40;96.50;;;;;;5072111;28;20047;-92
2023/03/18 01:07:53;;;;;;;10.10;3.38;;;12.30;96.80;;;;;;5081550;28;20119;-91
2023/03/18 01:10:19;;;;;;;11.45;3.40;;;12.30;96.90;;;;;;5073702;28;20032;-92
2023/03/18 01:12:47;;;;;;;13.10;3.65;;;12.20;96.90;;;;;;5072535;28;20091;-90
2023/03/18 01:15:16;;;;;;;8.02;3.10;;;12.20;96.80;;;;;;5072236;28;20064;-92
2023/03/18 01:17:43;;;;;;;8.65;3.28;;;12.20;97.50;;;;;;5064357;28;20024;-91
2023/03/18 01:20:11;;;;;;;10.27;3.97;;;12.20;97.70;;;;;;5063829;28;20047;-92
2023/03/18 01:22:40;;;;;;;9.70;3.72;;;12.20;97.90;;;;;;5064002;28;20032;-91
2023/03/18 01:25:07;;;;;;;8.80;3.28;;;12.10;98.10;;;;;;5081683;28;20040;-91
2023/03/18 01:27:33;;;;;;;10.40;4.18;;;12.10;98.10;;;;;;5083960;28;20036;-91
2023/03/18 01:29:59;;;;;;;8.10;3.25;;;12.00;98.30;;;;;;5072785;28;20032;-92
2023/03/18 01:32:24;;;;;;;12.45;3.78;;;12.00;98.60;;;;;;5073578;28;20036;-91
2023/03/18 01:34:50;;;;;;;9.02;3.25;;;12.00;98.90;;;;;;5073308;28;20416;-91
2023/03/18 01:37:16;;;;;;;9.55;3.50;;;12.00;99.00;;;;;;5090019;28;20405;-91
2023/03/18 01:39:41;;;;;;;9.63;3.80;;;12.00;99.30;;;;;;5072584;28;20443;-91
2023/03/18 01:42:07;;;;;;;12.52;3.72;;;11.90;99.60;;;;;;5089313;28;20055;-91
2023/03/18 01:44:32;;;;;;;11.48;3.88;;;11.80;99.90;;;;;;5073352;28;20416;-90
2023/03/18 01:46:58;;;;;;;11.02;3.83;;;11.80;99.90;;;;;;5089419;28;20076;-91
2023/03/18 01:49:32;;;;;;;8.88;3.78;;;11.80;99.90;;;;;;5088419;28;20040;-91
2023/03/18 01:52:04;;;;;;;9.18;3.60;;;11.70;99.90;;;;;;5072709;28;20072;-92
2023/03/18 01:54:37;;;;;;;9.83;3.67;;;11.70;99.90;;;;;;5073732;28;20594;-91
2023/03/18 01:57:03;;;;;;;14.15;3.75;;;11.70;99.90;;;;;;5076574;28;20089;-91
2023/03/18 01:59:32;;;;;;;10.93;3.90;;;11.60;99.90;;;;;;5075594;28;20448;-91
2023/03/18 02:02:08;;;;;;;9.52;3.97;;;11.60;99.90;;;;;;5076359;28;20067;-92
2023/03/18 02:04:44;;;;;;;9.18;3.70;;;11.60;99.90;;;;;;5076192;28;20499;-92
2023/03/18 02:07:16;;;;;;;9.30;3.95;;;11.50;99.90;;;;;;5091660;28;20505;-92
2023/03/18 02:09:42;;;;;;;11.07;4.03;;;11.50;99.90;;;;;;5076207;28;20132;-92
2023/03/18 02:12:09;;;;;;;13.90;4.72;;;11.50;99.90;;;;;;5076704;28;20138;-92
2023/03/18 02:14:34;;;;;;;11.00;4.10;;;11.50;99.90;;;;;;5075883;28;20040;-92
2023/03/18 02:17:02;;;;;;;13.00;4.70;;;11.50;99.90;;;;;;5093756;28;20127;-91
2023/03/18 02:20:17;;;;;;;9.63;3.97;;;11.50;99.90;;;;;;5092328;28;20052;-92
2023/03/18 02:22:49;;;;;;;11.90;3.60;;;11.50;99.90;;;;;;5059163;28;20051;-91
2023/03/18 02:25:46;;;;;;;9.73;4.37;;;11.40;99.90;;;;;;5075337;28;20044;-92
2023/03/18 02:28:19;;;;;;;10.65;4.20;;;11.40;99.90;;;;;;5076075;28;20051;-92
2023/03/18 02:30:53;;;;;;;10.43;4.05;;;11.40;99.90;;;;;;5093616;28;20047;-93
2023/03/18 02:33:22;;;;;;;11.32;4.57;;;11.40;99.90;;;;;;5076915;28;20035;-93
2023/03/18 02:35:53;;;;;;;11.18;4.45;;;11.40;99.90;;;;;;5092924;28;20032;-92
2023/03/18 02:38:19;;;;;;;12.05;4.40;;;11.40;99.90;;;;;;5076287;28;20085;-91
2023/03/18 02:40:44;;;;;;;9.93;4.07;;;11.40;99.90;;;;;;5093383;28;20409;-91
2023/03/18 02:43:30;;;;;;;8.63;4.20;;;11.40;99.90;;;;;;5092125;28;20501;-90
2023/03/18 02:45:56;;;;;;;10.05;4.50;;;11.40;99.90;;;;;;5075844;28;20040;-90
2023/03/18 02:48:26;;;;;;;11.43;4.78;;;11.40;99.90;;;;;;5073969;28;20048;-90
2023/03/18 02:50:53;;;;;;;11.45;4.90;;;11.50;99.90;;;;;;5075624;28;20407;-90
2023/03/18 02:53:19;;;;;;;9.43;4.57;;;11.50;99.90;;;;;;5092569;28;20028;-90
2023/03/18 02:55:45;;;;;;;11.07;4.85;;;11.50;99.90;;;;;;5066631;28;20405;-91
2023/03/18 02:58:11;;;;;;;10.77;4.78;;;11.50;99.90;;;;;;5092057;28;20076;-91
2023/03/18 03:00:37;;;;;;;10.95;4.40;;;11.50;99.90;;;;;;5074870;28;20098;-90
2023/03/18 03:03:04;;;;;;;10.38;5.10;;;11.50;99.90;;;;;;5092505;28;20036;-91
2023/03/18 03:05:30;;;;;;;11.02;4.53;;;11.50;99.90;;;;;;5091372;28;20096;-90
2023/03/18 03:07:55;;;;;;;10.23;4.75;;;11.50;99.90;;;;;;5074410;28;20047;-90
2023/03/18 03:10:21;;;;;;;11.65;4.90;;;11.50;99.90;;;;;;5092153;28;20040;-90
2023/03/18 03:12:47;;;;;;;10.82;4.82;;;11.50;99.90;;;;;;5075126;28;20040;-91
2023/03/18 03:15:13;;;;;;;12.73;5.00;;;11.50;99.90;;;;;;5092055;28;20398;-91
2023/03/18 03:17:40;;;;;;;9.50;5.18;;;11.50;99.90;;;;;;5074776;28;20153;-90
2023/03/18 03:20:07;;;;;;;11.45;5.03;;;11.50;99.90;;;;;;5091808;28;20040;-90
2023/03/18 03:22:34;;;;;;;11.70;4.93;;;11.50;99.90;;;;;;5075372;28;20047;-90
2023/03/18 03:25:00;;;;;;;13.23;4.97;;;11.40;99.90;;;;;;5074807;28;20040;-90
2023/03/18 03:27:27;;;;;;;11.25;5.32;;;11.40;99.90;;;;;;5074558;28;20051;-91
2023/03/18 03:29:54;;;;;;;10.65;5.05;;;11.40;99.90;;;;;;5074539;28;20047;-90
2023/03/18 03:32:20;;;;;;;12.25;5.22;;;11.40;99.90;;;;;;5073594;28;20075;-90
2023/03/18 03:34:46;;;;;;;10.38;5.18;;;11.40;99.90;;;;;;5075104;28;20039;-90
2023/03/18 03:37:12;;;;;;;10.73;5.03;;;11.40;99.90;;;;;;5074285;28;20039;-89
2023/03/18 03:39:38;;;;;;;10.95;5.00;;;11.40;99.90;;;;;;5091132;28;20182;-90
2023/03/18 03:42:04;;;;;;;12.90;5.50;;;11.40;99.90;;;;;;5074537;28;20139;-90
2023/03/18 03:44:29;;;;;;;12.20;5.32;;;11.40;99.90;;;;;;5074614;28;20044;-90
2023/03/18 03:46:55;;;;;;;10.18;5.05;;;11.40;99.90;;;;;;5091449;28;20047;-90
2023/03/18 03:49:21;;;;;;;11.05;5.68;;;11.40;99.90;;;;;;5073445;28;20627;-89
2023/03/18 03:51:46;;;;;;;12.02;5.18;;;11.30;99.90;;;;;;5091623;28;20036;-90
2023/03/18 03:54:12;;;;;;;11.45;5.18;;;11.30;99.90;;;;;;5091685;28;20042;-91
2023/03/18 03:56:38;;;;;;;11.98;5.35;;;11.30;99.90;;;;;;5073915;28;20032;-90
2023/03/18 03:59:04;;;;;;;11.65;5.22;;;11.20;99.90;;;;;;5091093;28;20122;-90
2023/03/18 04:01:31;;;;;;;15.95;6.40;;;11.20;99.90;;;;;;5091070;28;20122;-90
2023/03/18 04:03:57;;;;;;;12.50;5.65;;;11.20;99.90;;;;;;5074484;28;20048;-90
2023/03/18 04:06:22;;;;;;;14.45;6.43;;;11.20;99.90;;;;;;5074183;28;20516;-90
2023/03/18 04:08:48;;;;;;;11.65;5.55;;;11.20;99.90;;;;;;5090308;28;20036;-90
2023/03/18 04:11:14;;;;;;;12.43;6.28;;;11.20;99.90;;;;;;5090768;28;20089;-90
2023/03/18 04:13:40;;;;;;;12.65;5.95;;;11.20;99.90;;;;;;5074480;28;20588;-90
2023/03/18 04:16:06;;;;;;;13.45;5.93;;;11.20;99.90;;;;;;5090356;28;20040;-90
2023/03/18 04:18:32;;;;;;;11.80;5.43;;;11.20;99.90;;;;;;5091268;28;20036;-90
2023/03/18 04:20:58;;;;;;;14.07;6.22;;;11.10;99.90;;;;;;5073853;28;20512;-90
2023/03/18 04:23:23;;;;;;;11.90;5.93;;;11.10;99.90;;;;;;5073441;28;20713;-90
2023/03/18 04:25:49;;;;;;;13.38;6.43;;;11.10;99.90;;;;;;5074437;28;20405;-90
2023/03/18 04:28:15;;;;;;;14.43;6.88;;;11.10;99.90;;;;;;5073036;28;20489;-90
2023/03/18 04:30:40;;;;;;;12.05;6.82;;;11.00;99.90;;;;;;5090595;28;20081;-89
2023/03/18 04:33:06;;;;;;;14.30;7.75;;;11.00;99.90;;;;;;5073775;28;20447;-90
2023/03/18 04:35:32;;;;;;;11.55;6.03;;;11.00;99.90;;;;;;5073942;28;20081;-91
2023/03/18 04:37:58;;;;;;;12.48;6.88;;;11.00;99.90;;;;;;5073997;28;20736;-91
2023/03/18 04:40:24;;;;;;;12.38;6.78;;;11.00;99.90;;;;;;5073639;28;20103;-90
2023/03/18 04:42:50;;;;;;;14.07;6.95;;;11.00;99.90;;;;;;5074119;28;20032;-90
2023/03/18 04:45:16;;;;;;;15.23;7.97;;;11.00;99.90;;;;;;5073067;28;20035;-90
2023/03/18 04:47:43;;;;;;;14.05;7.15;;;11.00;99.90;;;;;;5073768;28;20075;-90
2023/03/18 04:50:11;;;;;;;15.50;8.77;;;10.90;99.90;;;;;;5090395;28;20089;-90
2023/03/18 04:52:40;;;;;;;15.45;7.43;;;10.90;99.90;;;;;;5089492;28;20039;-90
2023/03/18 04:55:08;;;;;;;14.10;7.43;;;10.90;99.90;;;;;;5073515;28;20066;-90
2023/03/18 04:57:36;;;;;;;13.10;7.20;;;10.90;99.90;;;;;;5072484;28;20032;-90
2023/03/18 05:00:06;;;;;;;12.52;7.10;;;10.90;99.90;;;;;;5073565;28;20397;-90
2023/03/18 05:02:32;;;;;;;12.45;6.93;;;10.90;99.90;;;;;;5090194;28;20089;-90
2023/03/18 05:04:59;;;;;;;12.52;7.57;;;10.90;99.90;;;;;;5073236;28;20036;-90
2023/03/18 05:07:26;;;;;;;12.90;7.22;;;10.90;99.90;;;;;;5073309;28;20051;-90
2023/03/18 05:09:51;;;;;;;14.57;7.45;;;10.90;99.90;;;;;;5073487;28;20032;-90
2023/03/18 05:12:17;;;;;;;13.40;7.57;;;10.90;99.90;;;;;;5090379;28;20063;-90
2023/03/18 05:14:43;;;;;;;15.50;7.47;;;10.90;99.90;;;;;;5073811;28;20062;-91
2023/03/18 05:17:14;;;;;;;14.13;8.23;;;10.90;99.90;;;;;;5073088;28;20028;-90
2023/03/18 05:19:44;;;;;;;15.05;7.35;;;10.80;99.90;;;;;;5073581;28;20573;-90
2023/03/18 05:22:11;;;;;;;13.20;7.70;;;10.80;99.90;;;;;;5072466;28;20044;-90
2023/03/18 05:24:37;;;;;;;15.45;7.55;;;10.80;99.90;;;;;;5073436;28;20048;-90
2023/03/18 05:27:04;;;;;;;14.48;7.95;;;10.80;99.90;;;;;;5072842;28;20062;-90
2023/03/18 05:29:29;;;;;;;14.95;7.88;;;10.80;99.90;;;;;;5074320;28;20102;-91
2023/03/18 05:31:55;;;;;;;14.90;7.90;;;10.80;99.90;;;;;;5094548;28;20074;-90
2023/03/18 05:34:20;;;;;;;16.30;8.30;;;10.90;99.90;;;;;;5093404;28;20070;-90
2023/03/18 05:36:47;;;;;;;13.25;7.70;;;10.90;99.90;;;;;;5076959;28;20117;-90
2023/03/18 05:39:13;;;;;;;13.65;8.10;;;10.90;99.90;;;;;;5075885;28;20517;-91
2023/03/18 05:41:39;;;;;;;14.65;7.53;;;10.90;99.90;;;;;;5093236;28;20071;-91
2023/03/18 05:44:06;;;;;;;15.73;7.75;;;10.90;99.90;;;;;;5076647;28;20126;-90
2023/03/18 05:46:32;;;;;;;14.50;7.07;;;10.90;99.90;;;;;;5076559;28;20044;-91
2023/03/18 05:48:58;;;;;;;13.75;7.53;;;10.90;99.90;;;;;;5076655;28;20136;-91
2023/03/18 05:51:25;;;;;;;12.55;7.30;;;10.90;99.90;;;;;;5075914;28;20115;-91
2023/03/18 05:53:51;;;;;;;13.15;7.53;;;10.90;99.90;;;;;;5076685;28;20085;-90
2023/03/18 05:56:17;;;;;;;13.13;7.45;;;10.90;99.90;;;;;;5076864;28;20032;-90
2023/03/18 05:58:43;;;;;;;15.05;8.23;;;10.90;99.90;;;;;;5093093;28;20048;-90
2023/03/18 06:01:08;;;;;;;15.80;8.18;;;10.90;99.90;;;;;;5076849;28;20079;-90
2023/03/18 06:03:34;;;;;;;15.98;8.35;;;10.90;99.90;;;;;;5076088;28;20131;-91
2023/03/18 06:06:00;;;;;;;14.80;7.60;;;10.90;99.90;;;;;;5093581;28;20085;-90
2023/03/18 06:08:26;;;;;;;15.13;7.95;;;10.90;99.90;;;;;;5093078;28;20051;-90
2023/03/18 06:10:53;;;;;;;12.93;7.45;;;10.90;99.90;;;;;;5092630;28;20075;-90
2023/03/18 06:13:18;;;;;;;16.85;8.23;;;10.90;99.90;;;;;;5076443;28;20123;-90
2023/03/18 06:15:45;;;;;;;15.05;8.00;;;10.90;99.90;;;;;;5093516;28;20128;-90
2023/03/18 06:18:11;;;;;;;16.35;7.90;;;10.90;99.90;;;;;;5075003;28;20043;-90
2023/03/18 06:20:37;;;;;;;15.18;8.05;;;10.90;99.90;;;;;;5076220;28;20040;-90
2023/03/18 06:23:04;;;;;;;14.13;8.35;;;10.90;99.90;;;;;;5092863;28;20120;-90
2023/03/18 06:25:30;;;;;;;12.65;7.45;;;11.00;99.90;;;;;;5076589;28;20051;-90
2023/03/18 06:27:56;;;;;;;17.27;8.10;;;11.00;99.90;;;;;;5076272;28;20099;-88
2023/03/18 06:30:22;;;;;;;14.32;7.85;;;11.00;99.90;;;;;;5075731;28;20036;-89
2023/03/18 06:32:48;;;;;;;16.13;8.73;;;11.00;99.90;;;;;;5076229;28;20047;-88
2023/03/18 06:35:14;;;;;;;15.90;8.65;;;11.00;99.90;;;;;;5092799;28;20493;-89
2023/03/18 06:37:40;;;;;;;14.73;8.40;;;11.10;99.90;;;;;;5091965;28;20397;-89
2023/03/18 06:40:07;;;;;;;12.88;7.80;;;11.10;99.90;;;;;;5075333;28;20489;-90
2023/03/18 06:42:33;;;;;;;17.90;8.63;;;11.10;99.90;;;;;;5075329;28;20067;-89
2023/03/18 06:44:59;;;;;;;15.43;7.95;;;11.10;99.90;;;;;;5093113;28;20067;-89
2023/03/18 06:47:25;;;;;;;14.30;8.50;;;11.10;99.90;;;;;;5075576;28;20031;-90
2023/03/18 06:49:51;;;;;;;18.17;8.90;;;11.10;99.90;;;;;;5092303;28;20523;-90
2023/03/18 06:52:17;;;;;;;14.90;8.40;;;11.20;99.90;;;;;;5075925;28;20036;-90
2023/03/18 06:54:44;;;;;;;15.27;9.10;;;11.20;99.90;;;;;;5091350;28;20040;-91
2023/03/18 06:57:10;;;;;;;14.90;8.90;;;11.20;99.90;;;;;;5075535;28;20036;-91
2023/03/18 06:59:37;;;;;;;16.13;8.68;;;11.20;99.90;;;;;;5091735;28;20122;-91
2023/03/18 07:02:04;;;;;;;13.48;9.05;;;11.20;99.90;;;;;;5073644;28;20047;-92
2023/03/18 07:04:30;;;;;;;19.02;10.35;;;11.10;99.90;;;;;;5054963;28;20044;-90
2023/03/18 07:06:56;;;;;;;16.50;10.13;;;11.20;99.90;;;;;;5083676;28;20092;-90
2023/03/18 07:09:23;;;;;;;19.08;10.15;;;11.20;99.90;;;;;;5074479;28;20051;-90
2023/03/18 07:11:49;;;;;;;17.92;10.60;;;11.20;99.90;;;;;;5074592;28;20088;-91
2023/03/18 07:14:15;;;;;;;18.10;10.70;;;11.20;99.90;;;;;;5074413;28;20501;-91
2023/03/18 07:16:40;;;;;;;18.98;11.23;;;11.20;99.90;;;;;;5075038;28;20039;-91
2023/03/18 07:19:06;;;;;;;18.63;10.13;;;11.20;99.90;;;;;;5090705;28;20039;-91
2023/03/18 07:21:32;;;;;;;20.25;10.45;;;11.20;99.90;;;;;;5092091;28;20048;-91
2023/03/18 07:23:58;;;;;;;18.15;10.57;;;11.20;99.90;;;;;;5091859;28;20123;-91
2023/03/18 07:26:24;;;;;;;17.92;10.40;;;11.20;99.90;;;;;;5074636;28;20072;-91
2023/03/18 07:28:51;;;;;;;18.77;11.00;;;11.20;99.90;;;;;;5091444;28;20036;-90
2023/03/18 07:31:17;;;;;;;19.17;10.98;;;11.10;99.90;;;;;;5091245;28;20083;-91
2023/03/18 07:33:42;;;;;;;21.15;11.85;;;11.10;99.90;;;;;;5074494;28;20036;-91
2023/03/18 07:36:08;;;;;;;18.65;11.57;;;11.10;99.90;;;;;;5074174;28;20070;-92
2023/03/18 07:38:34;;;;;;;18.70;12.38;;;11.10;99.90;;;;;;5073811;28;20036;-92
2023/03/18 07:41:00;;;;;;;21.17;11.75;;;11.00;99.90;;;;;;5075276;28;20085;-93
2023/03/18 07:43:26;;;;;;;23.13;13.13;;;11.00;99.90;;;;;;5073971;28;20039;-92
2023/03/18 07:45:52;;;;;;;22.63;13.95;;;11.00;99.90;;;;;;5074732;28;20040;-92
2023/03/18 07:48:18;;;;;;;19.55;12.77;;;11.00;99.90;;;;;;5074579;28;20040;-92
2023/03/18 07:50:44;;;;;;;26.33;15.27;;;11.00;99.90;;;;;;5074280;28;20032;-92
2023/03/18 07:53:11;;;;;;;27.00;16.83;;;11.00;99.90;;;;;;5074584;28;20515;-91
2023/03/18 07:55:37;;;;;;;21.85;14.93;;;11.00;99.90;;;;;;5074857;28;20075;-91
2023/03/18 07:58:03;;;;;;;21.60;13.77;;;11.00;99.90;;;;;;5090560;28;20071;-91
2023/03/18 08:00:29;;;;;;;23.45;14.65;;;11.10;99.90;;;;;;5074615;28;20044;-91
2023/03/18 08:02:55;;;;;;;25.52;13.63;;;11.10;99.90;;;;;;5074769;28;20063;-93
2023/03/18 08:05:21;;;;;;;20.60;12.70;;;11.10;99.90;;;;;;5074505;28;20066;-92
2023/03/18 08:07:47;;;;;;;21.95;14.48;;;11.20;99.90;;;;;;5074363;28;20047;-93
2023/03/18 08:10:14;;;;;;;22.55;14.48;;;11.20;99.90;;;;;;5074042;28;20038;-91
2023/03/18 08:12:41;;;;;;;23.33;13.68;;;11.20;99.90;;;;;;5091665;28;20038;-92
2023/03/18 08:15:08;;;;;;;24.50;13.55;;;11.30;99.90;;;;;;5073316;28;20503;-91
2023/03/18 08:17:34;;;;;;;22.25;15.07;;;11.30;99.90;;;;;;5073826;28;20032;-91
2023/03/18 08:19:59;;;;;;;22.77;14.50;;;11.30;99.90;;;;;;5073899;28;20044;-91
2023/03/18 08:22:25;;;;;;;19.73;13.48;;;11.30;99.90;;;;;;5090620;28;20043;-92
2023/03/18 08:24:51;;;;;;;25.58;14.90;;;11.40;99.90;;;;;;5073833;28;20039;-92
2023/03/18 08:27:17;;;;;;;23.27;14.85;;;11.40;99.90;;;;;;5073521;28;20032;-92
2023/03/18 08:29:43;;;;;;;23.60;14.20;;;11.50;99.90;;;;;;5060584;28;20058;-92
2023/03/18 08:32:10;;;;;;;24.95;14.73;;;11.60;99.90;;;;;;5062667;28;20047;-92
2023/03/18 08:34:35;;;;;;;24.30;15.68;;;11.60;99.90;;;;;;5084517;28;20036;-92
2023/03/18 08:37:01;;;;;;;26.33;15.05;;;11.80;99.90;;;;;;5071904;28;20134;-92
2023/03/18 08:39:27;;;;;;;23.85;15.45;;;11.80;99.90;;;;;;5070501;28;20043;-91
2023/03/18 08:41:53;;;;;;;23.23;15.18;;;11.80;99.90;;;;;;5071031;28;20043;-92
2023/03/18 08:44:19;;;;;;;24.67;17.10;;;11.90;99.90;;;;;;5071291;28;20051;-92
2023/03/18 08:46:44;;;;;;;23.23;15.88;;;12.00;99.90;;;;;;5070192;28;20091;-92
2023/03/18 08:49:11;;;;;;;26.17;17.33;;;12.10;99.90;;;;;;5087499;28;20044;-92
2023/03/18 08:51:37;;;;;;;22.38;16.17;;;12.30;99.90;;;;;;5070500;28;20032;-91
2023/03/18 08:54:03;;;;;;;22.35;15.70;;;12.40;99.90;;;;;;5090627;28;20074;-92
2023/03/18 08:56:28;;;;;;;25.88;15.88;;;12.50;99.90;;;;;;5090806;28;20055;-92
2023/03/18 08:58:54;;;;;;;24.02;16.33;;;12.70;99.90;;;;;;5089495;28;20047;-91
2023/03/18 09:01:21;;;;;;;27.30;24.02;;;12.80;99.90;;;;;;5073278;28;20044;-92
2023/03/18 09:03:47;;;;;;;25.42;15.90;;;13.00;99.90;;;;;;5073746;28;20047;-92
2023/03/18 09:06:14;;;;;;;26.50;16.58;;;13.10;99.90;;;;;;5077522;28;20044;-92
2023/03/18 09:08:40;;;;;;;24.63;16.60;;;13.10;99.90;;;;;;5063295;28;20040;-92
2023/03/18 09:11:06;;;;;;;28.58;24.25;;;13.20;99.90;;;;;;5090468;28;20039;-91
2023/03/18 09:13:32;;;;;;;25.00;16.20;;;13.30;99.90;;;;;;5064223;28;20364;-92
2023/03/18 09:15:58;;;;;;;25.77;23.15;;;13.30;99.90;;;;;;5085467;28;20036;-92
2023/03/18 09:18:24;;;;;;;24.60;16.40;;;13.30;99.90;;;;;;5077013;28;20123;-92
2023/03/18 09:20:51;;;;;;;23.27;16.08;;;13.20;99.90;;;;;;5077719;28;20124;-93
2023/03/18 09:23:17;;;;;;;23.73;16.83;;;13.30;99.90;;;;;;5090589;28;20040;-92
2023/03/18 09:25:45;;;;;;;22.50;15.93;;;13.30;99.90;;;;;;5098524;28;20032;-93
2023/03/18 09:28:13;;;;;;;24.23;17.05;;;13.50;99.90;;;;;;5067914;28;20036;-92
2023/03/18 09:30:38;;;;;;;26.13;17.75;;;13.70;99.90;;;;;;5058533;28;20101;-91
2023/03/18 09:33:05;;;;;;;23.10;15.05;;;13.60;99.90;;;;;;5081202;28;20028;-92
2023/03/18 09:35:32;;;;;;;24.70;22.10;;;13.60;99.90;;;;;;5076822;28;20541;-92
2023/03/18 09:37:57;;;;;;;23.45;20.88;;;13.70;99.90;;;;;;5093097;28;20099;-94
2023/03/18 09:40:43;;;;;;;23.27;14.73;;;13.70;99.90;;;;;;5076551;28;20140;-93
2023/03/18 09:43:39;;;;;;;24.33;14.23;;;13.70;99.90;;;;;;5093894;28;20083;-93
2023/03/18 09:46:31;;;;;;;23.08;14.85;;;13.70;99.90;;;;;;5086205;28;20043;-92
2023/03/18 09:49:38;;;;;;;21.65;15.35;;;13.80;99.90;;;;;;5076935;28;20112;-93
2023/03/18 09:52:26;;;;;;;20.60;12.45;;;13.90;99.90;;;;;;5055872;28;20044;-92
2023/03/18 09:55:07;;;;;;;20.35;14.25;;;14.00;99.90;;;;;;5094234;28;20055;-92
2023/03/18 09:57:41;;;;;;;20.73;18.63;;;14.10;99.90;;;;;;5076155;28;20043;-92
2023/03/18 10:00:36;;;;;;;22.10;19.83;;;14.10;99.90;;;;;;5094320;28;20048;-92
2023/03/18 10:03:13;;;;;;;22.15;19.95;;;14.10;99.90;;;;;;5076576;28;20075;-92
2023/03/18 10:05:52;;;;;;;20.50;12.43;;;14.10;99.90;;;;;;5077010;28;20477;-93
2023/03/18 10:08:42;;;;;;;20.83;18.65;;;13.90;99.90;;;;;;5093133;28;20047;-92
2023/03/18 10:11:22;;;;;;;18.88;12.02;;;13.90;99.90;;;;;;5076269;28;20679;-92
2023/03/18 10:14:09;;;;;;;17.52;10.68;;;13.90;99.90;;;;;;5076410;28;20040;-93
2023/03/18 10:16:47;;;;;;;15.23;10.65;;;13.90;99.90;;;;;;5093333;28;20116;-92
2023/03/18 10:19:13;;;;;;;14.98;11.18;;;14.00;99.90;;;;;;5076322;28;20568;-93
2023/03/18 10:22:12;;;;;;;15.85;13.43;;;14.00;99.90;;;;;;5075792;28;20122;-93
2023/03/18 10:24:57;;;;;;;16.58;14.68;;;14.10;99.90;;;;;;5076752;28;20048;-93
2023/03/18 10:27:48;;;;;;;17.00;10.68;;;14.30;99.90;;;;;;5076296;28;20092;-92
2023/03/18 10:30:37;;;;;;;16.80;10.90;;;14.40;99.90;;;;;;5072927;28;20040;-92
2023/03/18 10:33:43;;;;;;;18.33;10.55;;;14.60;99.90;;;;;;5062324;28;20046;-93
2023/03/18 10:36:24;;;;;;;16.40;12.40;;;14.80;99.90;;;;;;5090392;28;20036;-93
2023/03/18 10:38:53;;;;;;;16.13;12.93;;;15.00;99.90;;;;;;5092918;28;20047;-93
2023/03/18 10:41:42;;;;;;;16.15;13.52;;;15.20;99.90;;;;;;5056298;28;20404;-93
2023/03/18 10:44:19;;;;;;;13.90;9.48;;;15.40;99.90;;;;;;5056510;28;20432;-93
2023/03/18 10:46:46;;;;;;;16.63;12.63;;;15.50;99.90;;;;;;5084817;28;20093;-93
2023/03/18 10:49:19;;;;;;;13.43;11.52;;;15.70;99.90;;;;;;5093219;28;20409;-93
2023/03/18 10:52:08;;;;;;;14.25;8.27;;;15.70;99.90;;;;;;5075401;28;20120;-93
2023/03/18 10:54:51;;;;;;;14.82;10.32;;;15.50;99.90;;;;;;5092747;28;20032;-93
2023/03/18 10:57:20;;;;;;;12.07;9.85;;;15.30;99.90;;;;;;5075036;28;20040;-93
2023/03/18 10:59:48;;;;;;;10.13;6.47;;;15.30;99.90;;;;;;5075703;28;20507;-92
2023/03/18 11:02:40;;;;;;;12.88;9.50;;;15.30;99.90;;;;;;5075484;28;20531;-93
2023/03/18 11:05:28;;;;;;;13.52;6.70;;;15.40;99.50;;;;;;5089154;28;20048;-93
2023/03/18 11:08:27;;;;;;;12.75;7.63;;;15.50;99.90;;;;;;5071990;28;20055;-94
2023/03/18 11:10:53;;;;;;;13.18;10.18;;;15.70;99.90;;;;;;5076107;28;20036;-93
2023/03/18 11:13:21;;;;;;;14.63;10.77;;;15.80;96.40;;;;;;5065164;28;20039;-93
2023/03/18 11:15:55;;;;;;;12.52;10.60;;;15.80;96.20;;;;;;5068814;28;20039;-94
2023/03/18 11:18:26;;;;;;;16.20;9.52;;;16.00;98.90;;;;;;5078761;28;20493;-93
2023/03/18 11:21:05;;;;;;;16.40;11.90;;;16.10;99.90;;;;;;5088012;28;20036;-94
2023/03/18 11:23:55;;;;;;;15.70;11.57;;;16.20;98.90;;;;;;5075939;28;20405;-93
2023/03/18 11:26:23;;;;;;;13.73;11.43;;;16.20;96.50;;;;;;5075061;28;20036;-93
2023/03/18 11:28:57;;;;;;;13.15;11.05;;;16.20;97.50;;;;;;5072563;28;20140;-92
2023/03/18 11:31:23;;;;;;;13.85;11.38;;;16.30;95.70;;;;;;5056381;28;20036;-94
2023/03/18 11:33:49;;;;;;;13.85;9.07;;;16.20;95.10;;;;;;5091384;28;20409;-94
2023/03/18 11:36:18;;;;;;;14.00;9.15;;;16.20;96.00;;;;;;5091616;28;20046;-88
2023/03/18 11:38:54;;;;;;;14.98;12.27;;;16.20;96.00;;;;;;5090107;28;20146;-87
2023/03/18 11:41:26;;;;;;;14.30;11.82;;;16.30;97.50;;;;;;5074543;28;20043;-88
2023/03/18 11:43:55;;;;;;;13.45;9.45;;;16.60;97.70;;;;;;5073475;28;20039;-88
2023/03/18 11:46:24;;;;;;;13.45;12.02;;;16.80;96.60;;;;;;5065580;28;20040;-87
2023/03/18 11:48:49;;;;;;;13.57;11.75;;;17.00;94.70;;;;;;5081396;28;20093;-88
2023/03/18 11:51:43;;;;;;;14.00;11.73;;;17.10;92.30;;;;;;5082827;28;20040;-87
2023/03/18 11:54:27;;;;;;;13.70;11.63;;;17.20;92.30;;;;;;5078286;28;20553;-88
2023/03/18 11:57:29;;;;;;;14.77;12.50;;;17.30;91.00;;;;;;5079260;28;20093;-88
2023/03/18 12:00:32;;;;;;;14.27;12.25;;;17.30;92.40;;;;;;5056490;28;20456;-87
2023/03/18 12:03:03;;;;;;;;;;;17.40;90.80;;;;;;5065838;28;20032;-88
2023/03/18 12:05:57;;;;;;;13.27;10.77;;;17.40;90.90;;;;;;5082360;28;20373;-88
2023/03/18 12:08:42;;;;;;;13.93;11.15;;;17.50;90.60;;;;;;5096032;28;20131;-88
2023/03/18 12:11:15;;;;;;;13.35;11.43;;;17.70;90.40;;;;;;5066769;28;20561;-88
2023/03/18 12:13:47;;;;;;;13.77;10.93;;;17.80;88.20;;;;;;5081559;28;20035;-87
2023/03/18 12:16:36;;;;;;;15.88;11.63;;;17.70;86.70;;;;;;5083119;28;20043;-88
2023/03/18 12:19:29;;;;;;;14.15;11.55;;;17.70;86.00;;;;;;5082791;28;20413;-88
2023/03/18 12:22:14;;;;;;;12.88;10.15;;;17.60;85.80;;;;;;5082097;28;20068;-88
2023/03/18 12:24:55;;;;;;;13.10;10.90;;;17.60;86.30;;;;;;5082516;28;20044;-87
2023/03/18 12:27:31;;;;;;;13.80;11.23;;;17.60;87.70;;;;;;5098347;28;20062;-87
2023/03/18 12:30:02;;;;;;;15.45;12.30;;;17.60;86.20;;;;;;5079461;28;20036;-88
2023/03/18 12:32:55;;;;;;;15.00;11.77;;;17.60;85.70;;;;;;5070856;28;20028;-88
2023/03/18 12:35:36;;;;;;;14.88;11.00;;;17.50;87.60;;;;;;5084398;28;20413;-88
2023/03/18 12:38:26;;;;;;;13.48;12.05;;;17.40;88.70;;;;;;5078347;28;20516;-87
2023/03/18 12:40:55;;;;;;;14.00;12.18;;;17.40;89.90;;;;;;5081306;28;20043;-87
2023/03/18 12:43:29;;;;;;;15.43;11.68;;;17.30;89.30;;;;;;5083621;28;20035;-87
2023/03/18 12:46:04;;;;;;;15.23;12.38;;;17.30;89.70;;;;;;5074335;28;20044;-87
2023/03/18 12:48:39;;;;;;;14.63;11.25;;;17.30;90.60;;;;;;5089879;28;20040;-87